createdAt,value
2023-01-15T00:00:27.297Z,91.40
2023-01-15T00:02:53.982Z,89.30
2023-01-15T00:05:20.733Z,88.90
2023-01-15T00:07:47.405Z,89.30
2023-01-15T00:10:14.206Z,88.90
2023-01-15T00:12:41.018Z,89.30
2023-01-15T00:15:07.705Z,89.80
2023-01-15T00:17:34.522Z,88.30
2023-01-15T00:20:01.272Z,89.30
2023-01-15T00:22:27.961Z,89.20
2023-01-15T00:25:13.416Z,90.20
2023-01-15T00:27:40.269Z,90.50
2023-01-15T00:30:07.083Z,91.00
2023-01-15T00:32:33.856Z,90.30
2023-01-15T00:35:00.525Z,90.50
2023-01-15T00:37:27.191Z,90.30
2023-01-15T00:39:53.854Z,90.40
2023-01-15T00:42:20.532Z,91.30
2023-01-15T00:44:47.684Z,91.30
2023-01-15T00:47:15.272Z,90.90
2023-01-15T00:49:41.898Z,90.70
2023-01-15T00:52:08.509Z,91.50
2023-01-15T00:54:35.171Z,91.40
2023-01-15T00:57:01.779Z,91.60
2023-01-15T00:59:28.502Z,91.20
2023-01-15T01:01:55.219Z,90.90
2023-01-15T01:04:21.924Z,90.80
2023-01-15T01:06:48.582Z,90.90
2023-01-15T01:09:15.211Z,91.30
2023-01-15T01:11:41.856Z,91.40
2023-01-15T01:14:08.566Z,91.50
2023-01-15T01:16:37.520Z,91.40
2023-01-15T01:19:04.215Z,91.30
2023-01-15T01:21:30.859Z,91.70
2023-01-15T01:23:57.550Z,91.50
2023-01-15T01:26:24.166Z,92.30
2023-01-15T01:28:50.875Z,92.00
2023-01-15T01:31:17.605Z,91.90
2023-01-15T01:33:44.299Z,91.30
2023-01-15T01:36:10.953Z,91.10
2023-01-15T01:38:37.615Z,91.50
2023-01-15T01:41:04.302Z,91.60
2023-01-15T01:43:31.042Z,91.60
2023-01-15T01:45:57.735Z,91.70
2023-01-15T01:48:24.448Z,92.00
2023-01-15T01:50:51.132Z,92.40
2023-01-15T01:53:17.832Z,92.20
2023-01-15T01:55:44.438Z,92.70
2023-01-15T01:58:11.157Z,92.50
2023-01-15T02:00:37.895Z,92.90
2023-01-15T02:03:04.653Z,93.70
2023-01-15T02:05:31.492Z,93.70
2023-01-15T02:07:58.175Z,93.20
2023-01-15T02:10:24.829Z,93.40
2023-01-15T02:12:51.468Z,93.40
2023-01-15T02:15:18.399Z,93.60
2023-01-15T02:17:45.121Z,93.70
2023-01-15T02:20:11.782Z,93.50
2023-01-15T02:22:38.458Z,94.00
2023-01-15T02:25:05.162Z,93.70
2023-01-15T02:27:31.792Z,93.90
2023-01-15T02:29:58.501Z,93.80
2023-01-15T02:32:25.231Z,94.00
2023-01-15T02:34:52.010Z,93.90
2023-01-15T02:37:18.818Z,93.80
2023-01-15T02:39:45.592Z,93.90
2023-01-15T02:42:12.395Z,93.80
2023-01-15T02:44:39.062Z,93.60
2023-01-15T02:47:05.780Z,93.70
2023-01-15T02:49:33.192Z,93.30
2023-01-15T02:51:59.934Z,93.30
2023-01-15T02:54:26.633Z,93.60
2023-01-15T02:56:53.282Z,93.20
2023-01-15T02:59:19.928Z,93.00
2023-01-15T03:01:46.736Z,93.10
2023-01-15T03:04:13.493Z,92.90
2023-01-15T03:06:40.171Z,92.80
2023-01-15T03:09:06.827Z,92.50
2023-01-15T03:11:34.143Z,92.70
2023-01-15T03:14:00.789Z,92.70
2023-01-15T03:16:38.233Z,92.10
2023-01-15T03:19:04.994Z,92.10
2023-01-15T03:21:31.667Z,91.20
2023-01-15T03:23:58.326Z,91.20
2023-01-15T03:26:24.989Z,91.20
2023-01-15T03:28:51.671Z,91.00
2023-01-15T03:31:18.329Z,91.40
2023-01-15T03:33:45.029Z,91.30
2023-01-15T03:36:12.093Z,90.60
2023-01-15T03:38:39.457Z,90.70
2023-01-15T03:41:06.146Z,90.40
2023-01-15T03:43:42.116Z,90.60
2023-01-15T03:46:08.876Z,90.10
2023-01-15T03:48:35.526Z,90.20
2023-01-15T03:51:02.157Z,90.70
2023-01-15T03:53:28.797Z,90.80
2023-01-15T03:55:55.512Z,90.30
2023-01-15T03:58:22.190Z,90.80
2023-01-15T04:00:48.916Z,90.40
2023-01-15T04:03:15.587Z,90.20
2023-01-15T04:05:42.262Z,90.40
2023-01-15T04:08:08.904Z,90.80
2023-01-15T04:10:35.736Z,91.00
2023-01-15T04:13:02.476Z,90.50
2023-01-15T04:15:29.269Z,91.30
2023-01-15T04:17:55.967Z,90.90
2023-01-15T04:20:22.710Z,90.70
2023-01-15T04:22:49.337Z,90.40
2023-01-15T04:25:16.033Z,90.50
2023-01-15T04:27:42.705Z,90.90
2023-01-15T04:30:09.511Z,90.50
2023-01-15T04:32:36.200Z,90.60
2023-01-15T04:35:02.898Z,90.40
2023-01-15T04:37:29.566Z,90.70
2023-01-15T04:39:56.244Z,90.60
2023-01-15T04:42:41.796Z,90.50
2023-01-15T04:45:08.543Z,91.10
2023-01-15T04:47:35.301Z,90.70
2023-01-15T04:50:02.177Z,90.40
2023-01-15T04:52:28.901Z,90.80
2023-01-15T04:54:55.877Z,91.10
2023-01-15T04:57:22.692Z,90.70
2023-01-15T04:59:49.671Z,91.10
2023-01-15T05:02:16.458Z,91.40
2023-01-15T05:04:43.280Z,91.50
2023-01-15T05:07:09.941Z,91.40
2023-01-15T05:09:36.780Z,91.80
2023-01-15T05:12:03.573Z,91.50
2023-01-15T05:14:30.344Z,91.70
2023-01-15T05:16:57.020Z,92.50
2023-01-15T05:19:26.374Z,91.90
2023-01-15T05:21:53.059Z,91.40
2023-01-15T05:24:19.891Z,91.30
2023-01-15T05:26:46.744Z,91.60
2023-01-15T05:29:13.652Z,91.30
2023-01-15T05:31:42.012Z,91.50
2023-01-15T05:34:08.797Z,91.50
2023-01-15T05:36:37.713Z,91.60
2023-01-15T05:39:04.560Z,91.20
2023-01-15T05:41:49.880Z,90.90
2023-01-15T05:44:16.633Z,90.60
2023-01-15T05:46:43.293Z,90.50
2023-01-15T05:49:10.215Z,90.20
2023-01-15T05:51:36.988Z,90.00
2023-01-15T05:54:03.807Z,89.30
2023-01-15T05:56:30.554Z,90.30
2023-01-15T05:58:57.292Z,88.90
2023-01-15T06:01:23.985Z,90.20
2023-01-15T06:03:51.064Z,88.20
2023-01-15T06:06:17.831Z,89.20
2023-01-15T06:08:44.539Z,89.30
2023-01-15T06:11:11.686Z,89.80
2023-01-15T06:13:39.600Z,90.20
2023-01-15T06:16:06.385Z,90.00
2023-01-15T06:18:33.765Z,89.80
2023-01-15T06:21:00.423Z,90.40
2023-01-15T06:23:27.184Z,89.40
2023-01-15T06:25:53.904Z,89.20
2023-01-15T06:28:20.591Z,87.80
2023-01-15T06:30:47.332Z,88.40
2023-01-15T06:33:14.109Z,88.70
2023-01-15T06:35:40.732Z,88.20
2023-01-15T06:38:07.396Z,89.10
2023-01-15T06:40:34.193Z,89.80
2023-01-15T06:43:19.675Z,89.70
2023-01-15T06:46:04.997Z,90.00
2023-01-15T06:48:31.749Z,90.10
2023-01-15T06:50:58.493Z,90.30
2023-01-15T06:53:25.292Z,90.60
2023-01-15T06:55:52.052Z,90.70
2023-01-15T06:58:22.276Z,90.90
2023-01-15T07:00:55.288Z,91.50
2023-01-15T07:03:22.010Z,91.30
2023-01-15T07:05:48.827Z,91.40
2023-01-15T07:08:15.452Z,90.70
2023-01-15T07:10:42.211Z,91.00
2023-01-15T07:13:08.902Z,90.90
2023-01-15T07:15:38.076Z,91.10
2023-01-15T07:18:05.625Z,90.70
2023-01-15T07:20:32.371Z,91.40
2023-01-15T07:22:59.232Z,90.90
2023-01-15T07:25:26.234Z,90.90
2023-01-15T07:27:52.911Z,91.10
2023-01-15T07:30:19.645Z,91.10
2023-01-15T07:32:46.393Z,91.50
2023-01-15T07:35:13.094Z,91.10
2023-01-15T07:37:40.242Z,91.40
2023-01-15T07:40:06.957Z,91.20
2023-01-15T07:42:52.462Z,91.50
2023-01-15T07:45:37.851Z,91.60
2023-01-15T07:48:23.429Z,91.80
2023-01-15T07:50:50.251Z,91.20
2023-01-15T07:53:17.021Z,91.50
2023-01-15T07:55:43.742Z,91.20
2023-01-15T07:58:10.499Z,91.00
2023-01-15T08:00:37.196Z,91.40
2023-01-15T08:03:03.884Z,91.20
2023-01-15T08:05:30.598Z,90.80
2023-01-15T08:07:57.437Z,91.20
2023-01-15T08:10:25.623Z,90.60
2023-01-15T08:13:10.999Z,90.80
2023-01-15T08:15:37.724Z,90.60
2023-01-15T08:18:05.180Z,90.40
2023-01-15T08:20:31.936Z,90.50
2023-01-15T08:22:58.648Z,90.30
2023-01-15T08:25:25.375Z,90.30
2023-01-15T08:27:52.369Z,90.70
2023-01-15T08:30:19.015Z,90.60
2023-01-15T08:32:45.636Z,90.50
2023-01-15T08:35:13.328Z,90.60
2023-01-15T08:37:40.057Z,90.80
2023-01-15T08:40:06.873Z,91.00
2023-01-15T08:42:33.559Z,91.50
2023-01-15T08:45:00.250Z,91.20
2023-01-15T08:47:26.905Z,91.10
2023-01-15T08:49:53.620Z,91.30
2023-01-15T08:52:20.399Z,91.00
2023-01-15T08:54:47.032Z,91.50
2023-01-15T08:57:14.004Z,91.50
2023-01-15T08:59:43.632Z,91.30
2023-01-15T09:02:10.308Z,90.90
2023-01-15T09:04:37.085Z,90.80
2023-01-15T09:07:04.124Z,90.70
2023-01-15T09:09:30.892Z,90.80
2023-01-15T09:11:57.703Z,91.30
2023-01-15T09:14:56.283Z,91.10
2023-01-15T09:17:11.252Z,90.60
2023-01-15T09:19:38.088Z,91.30
2023-01-15T09:22:04.755Z,90.60
2023-01-15T09:24:31.539Z,90.70
2023-01-15T09:26:58.206Z,91.00
2023-01-15T09:29:24.825Z,90.30
2023-01-15T09:31:51.535Z,90.60
2023-01-15T09:34:18.333Z,90.10
2023-01-15T09:36:46.594Z,90.00
2023-01-15T09:39:13.530Z,90.20
2023-01-15T09:41:59.023Z,89.60
2023-01-15T09:44:25.719Z,90.00
2023-01-15T09:46:52.384Z,90.50
2023-01-15T09:49:19.106Z,90.40
2023-01-15T09:51:47.490Z,89.80
2023-01-15T09:54:14.112Z,90.10
2023-01-15T09:56:40.823Z,89.70
2023-01-15T09:59:07.533Z,89.60
2023-01-15T10:01:34.169Z,89.80
2023-01-15T10:04:00.946Z,89.40
2023-01-15T10:06:27.678Z,90.60
2023-01-15T10:08:54.404Z,90.40
2023-01-15T10:11:22.238Z,89.60
2023-01-15T10:13:48.970Z,89.30
2023-01-15T10:16:15.725Z,89.40
2023-01-15T10:18:43.633Z,90.00
2023-01-15T10:21:10.364Z,89.10
2023-01-15T10:23:37.461Z,90.00
2023-01-15T10:26:04.127Z,88.50
2023-01-15T10:28:30.955Z,89.50
2023-01-15T10:30:57.613Z,89.90
2023-01-15T10:33:24.405Z,89.30
2023-01-15T10:35:51.070Z,90.30
2023-01-15T10:38:17.927Z,88.80
2023-01-15T10:40:44.634Z,88.70
2023-01-15T10:43:11.625Z,88.80
2023-01-15T10:45:38.228Z,88.10
2023-01-15T10:48:04.855Z,89.20
2023-01-15T10:50:31.534Z,88.30
2023-01-15T10:52:58.193Z,88.80
2023-01-15T10:55:25.087Z,89.60
2023-01-15T10:58:01.899Z,87.80
2023-01-15T11:00:35.902Z,89.10
2023-01-15T11:03:08.776Z,88.30
2023-01-15T11:05:35.431Z,88.30
2023-01-15T11:08:34.467Z,88.20
2023-01-15T11:10:48.802Z,87.90
2023-01-15T11:13:34.412Z,87.90
2023-01-15T11:16:19.915Z,88.20
2023-01-15T11:19:05.479Z,90.00
2023-01-15T11:21:32.144Z,88.70
2023-01-15T11:23:58.793Z,88.10
2023-01-15T11:26:25.753Z,85.90
2023-01-15T11:28:52.448Z,87.10
2023-01-15T11:31:19.278Z,88.20
2023-01-15T11:33:46.317Z,87.30
2023-01-15T11:36:12.988Z,85.90
2023-01-15T11:38:39.706Z,86.60
2023-01-15T11:41:06.390Z,85.60
2023-01-15T11:43:52.016Z,85.00
2023-01-15T11:46:37.365Z,84.60
2023-01-15T11:49:22.696Z,84.60
2023-01-15T11:51:49.359Z,84.50
2023-01-15T11:54:16.001Z,85.10
2023-01-15T11:56:42.614Z,84.50
2023-01-15T11:59:09.296Z,84.60
2023-01-15T12:01:36.205Z,84.10
2023-01-15T12:04:03.148Z,84.20
2023-01-15T12:06:29.764Z,82.30
2023-01-15T12:08:56.625Z,81.60
2023-01-15T12:11:27.190Z,82.70
2023-01-15T12:13:54.164Z,83.00
2023-01-15T12:16:21.057Z,81.30
2023-01-15T12:18:47.818Z,82.40
2023-01-15T12:21:15.216Z,82.60
2023-01-15T12:23:41.849Z,83.00
2023-01-15T12:26:08.772Z,81.80
2023-01-15T12:28:35.467Z,82.20
2023-01-15T12:31:02.194Z,81.80
2023-01-15T12:33:28.938Z,81.30
2023-01-15T12:35:57.016Z,82.10
2023-01-15T12:38:23.615Z,82.40
2023-01-15T12:40:50.280Z,81.70
2023-01-15T12:43:35.684Z,81.40
2023-01-15T12:46:02.274Z,80.80
2023-01-15T12:48:28.897Z,80.10
2023-01-15T12:50:55.586Z,78.90
2023-01-15T12:53:22.539Z,79.50
2023-01-15T12:55:49.171Z,80.60
2023-01-15T12:58:15.848Z,79.60
2023-01-15T13:00:42.572Z,79.90
2023-01-15T13:03:09.250Z,78.90
2023-01-15T13:05:36.035Z,78.70
2023-01-15T13:08:02.882Z,79.80
2023-01-15T13:10:34.398Z,80.50
2023-01-15T13:13:01.058Z,81.60
2023-01-15T13:15:28.196Z,80.50
2023-01-15T13:17:54.822Z,78.40
2023-01-15T13:20:21.564Z,78.90
2023-01-15T13:22:48.243Z,77.90
2023-01-15T13:25:15.052Z,79.40
2023-01-15T13:27:41.685Z,78.50
2023-01-15T13:30:08.311Z,77.10
2023-01-15T13:32:35.080Z,77.30
2023-01-15T13:35:01.707Z,76.30
2023-01-15T13:37:28.383Z,74.60
2023-01-15T13:39:55.257Z,75.00
2023-01-15T13:42:38.201Z,74.60
2023-01-15T13:45:04.912Z,74.60
2023-01-15T13:47:31.541Z,74.20
2023-01-15T13:49:59.921Z,72.60
2023-01-15T13:52:26.634Z,72.90
2023-01-15T13:54:53.384Z,73.90
2023-01-15T13:57:20.087Z,75.00
2023-01-15T13:59:47.941Z,73.60
2023-01-15T14:02:14.777Z,74.20
2023-01-15T14:04:41.438Z,75.40
2023-01-15T14:07:08.150Z,74.30
2023-01-15T14:09:34.867Z,74.90
2023-01-15T14:12:01.557Z,75.10
2023-01-15T14:14:28.198Z,74.90
2023-01-15T14:16:54.996Z,76.80
2023-01-15T14:19:21.697Z,75.70
2023-01-15T14:21:48.351Z,74.50
2023-01-15T14:24:15.023Z,76.30
2023-01-15T14:26:41.684Z,75.20
2023-01-15T14:29:08.431Z,74.50
2023-01-15T14:31:35.286Z,74.50
2023-01-15T14:34:02.084Z,74.60
2023-01-15T14:36:28.741Z,73.00
2023-01-15T14:38:55.388Z,75.00
2023-01-15T14:41:22.086Z,73.90
2023-01-15T14:43:48.749Z,73.80
2023-01-15T14:46:15.458Z,74.30
2023-01-15T14:48:42.124Z,75.70
2023-01-15T14:51:08.885Z,76.10
2023-01-15T14:53:36.385Z,76.30
2023-01-15T14:56:03.181Z,77.80
2023-01-15T14:58:31.008Z,79.70
2023-01-15T15:00:57.856Z,78.60
2023-01-15T15:03:24.543Z,80.00
2023-01-15T15:05:51.191Z,80.00
2023-01-15T15:08:17.866Z,82.50
2023-01-15T15:10:44.535Z,79.60
2023-01-15T15:13:13.347Z,79.60
2023-01-15T15:15:39.979Z,81.20
2023-01-15T15:18:07.700Z,81.30
2023-01-15T15:20:34.374Z,81.60
2023-01-15T15:23:01.627Z,81.10
2023-01-15T15:25:29.489Z,81.40
2023-01-15T15:27:56.103Z,81.80
2023-01-15T15:30:22.701Z,80.60
2023-01-15T15:32:49.368Z,81.80
2023-01-15T15:35:16.009Z,82.30
2023-01-15T15:37:42.628Z,81.30
2023-01-15T15:40:09.297Z,82.30
2023-01-15T15:42:54.715Z,83.20
2023-01-15T15:45:39.785Z,83.80
2023-01-15T15:48:24.928Z,83.70
2023-01-15T15:50:51.556Z,84.00
2023-01-15T15:53:18.296Z,84.30
2023-01-15T15:55:44.914Z,85.00
2023-01-15T15:58:11.580Z,85.10
2023-01-15T16:00:38.197Z,85.50
2023-01-15T16:03:04.842Z,85.90
2023-01-15T16:05:32.531Z,85.70
2023-01-15T16:07:59.198Z,87.30
2023-01-15T16:10:26.012Z,87.80
2023-01-15T16:12:52.691Z,87.40
2023-01-15T16:15:19.448Z,87.20
2023-01-15T16:17:46.420Z,88.10
2023-01-15T16:20:13.027Z,88.80
2023-01-15T16:22:39.634Z,88.20
2023-01-15T16:25:06.260Z,89.00
2023-01-15T16:27:33.629Z,89.60
2023-01-15T16:30:00.298Z,90.40
2023-01-15T16:32:27.714Z,90.00
2023-01-15T16:34:54.327Z,90.70
2023-01-15T16:37:21.022Z,90.70
2023-01-15T16:39:47.778Z,90.80
2023-01-15T16:42:14.445Z,91.00
2023-01-15T16:44:42.881Z,91.40
2023-01-15T16:47:09.576Z,91.80
2023-01-15T16:49:36.197Z,92.50
2023-01-15T16:52:02.898Z,92.20
2023-01-15T16:54:29.633Z,92.20
2023-01-15T16:56:56.330Z,92.70
2023-01-15T16:59:22.973Z,92.80
2023-01-15T17:01:52.462Z,92.80
2023-01-15T17:04:19.423Z,93.20
2023-01-15T17:06:46.116Z,93.20
2023-01-15T17:09:12.741Z,93.30
2023-01-15T17:11:39.546Z,93.50
2023-01-15T17:14:06.131Z,93.70
2023-01-15T17:16:32.775Z,94.10
2023-01-15T17:18:59.369Z,94.10
2023-01-15T17:21:28.833Z,94.50
2023-01-15T17:23:55.602Z,94.50
2023-01-15T17:26:22.296Z,94.50
2023-01-15T17:28:48.988Z,94.80
2023-01-15T17:31:15.607Z,95.00
2023-01-15T17:33:42.263Z,95.30
2023-01-15T17:36:08.868Z,95.60
2023-01-15T17:38:35.485Z,95.90
2023-01-15T17:41:05.467Z,95.90
2023-01-15T17:43:32.173Z,96.30
2023-01-15T17:46:00.965Z,96.40
2023-01-15T17:48:28.189Z,96.80
2023-01-15T17:50:55.384Z,96.70
2023-01-15T17:53:22.027Z,97.10
2023-01-15T17:56:12.114Z,97.20
2023-01-15T17:58:57.161Z,97.30
2023-01-15T18:01:42.461Z,97.50
2023-01-15T18:04:27.819Z,97.70
2023-01-15T18:06:54.462Z,97.80
2023-01-15T18:09:21.069Z,98.00
2023-01-15T18:11:47.719Z,98.10
2023-01-15T18:14:14.414Z,97.90
2023-01-15T18:16:41.055Z,98.20
2023-01-15T18:19:07.736Z,98.10
2023-01-15T18:21:34.364Z,98.10
2023-01-15T18:24:01.288Z,97.60
2023-01-15T18:26:27.942Z,97.70
2023-01-15T18:28:54.586Z,97.30
2023-01-15T18:31:21.208Z,97.30
2023-01-15T18:33:47.843Z,97.20
2023-01-15T18:36:14.449Z,97.00
2023-01-15T18:38:41.124Z,97.10
2023-01-15T18:41:07.904Z,97.40
2023-01-15T18:43:53.315Z,97.00
2023-01-15T18:46:38.964Z,96.90
2023-01-15T18:49:05.604Z,96.80
2023-01-15T18:51:32.235Z,96.60
2023-01-15T18:53:58.920Z,96.70
2023-01-15T18:56:43.300Z,96.90
2023-01-15T18:59:10.195Z,96.60
2023-01-15T19:01:37.040Z,96.40
2023-01-15T19:04:06.789Z,96.80
2023-01-15T19:06:33.825Z,96.20
2023-01-15T19:09:01.070Z,96.30
2023-01-15T19:11:27.772Z,96.30
2023-01-15T19:14:13.117Z,96.00
2023-01-15T19:16:58.739Z,95.70
2023-01-15T19:19:25.454Z,96.10
2023-01-15T19:22:12.052Z,96.20
2023-01-15T19:24:38.778Z,96.30
2023-01-15T19:27:05.603Z,97.00
2023-01-15T19:29:32.267Z,97.10
2023-01-15T19:31:59.018Z,97.10
2023-01-15T19:34:34.319Z,97.40
2023-01-15T19:37:01.312Z,97.80
2023-01-15T19:39:27.967Z,97.70
2023-01-15T19:42:13.531Z,98.00
2023-01-15T19:44:59.206Z,98.20
2023-01-15T19:47:44.797Z,98.20
2023-01-15T19:50:20.747Z,98.50
2023-01-15T19:52:47.381Z,98.70
2023-01-15T19:55:15.219Z,98.90
2023-01-15T19:57:41.887Z,99.20
2023-01-15T20:00:08.700Z,99.40
2023-01-15T20:02:36.735Z,99.60
2023-01-15T20:05:03.541Z,99.60
2023-01-15T20:07:30.678Z,99.90
2023-01-15T20:09:57.397Z,99.90
2023-01-15T20:12:42.879Z,99.90
2023-01-15T20:15:10.396Z,99.90
2023-01-15T20:17:37.477Z,99.90
2023-01-15T20:20:04.382Z,99.90
2023-01-15T20:22:31.295Z,99.90
2023-01-15T20:24:57.964Z,99.90
2023-01-15T20:27:24.759Z,99.90
2023-01-15T20:30:04.768Z,99.90
2023-01-15T20:32:31.738Z,99.90
2023-01-15T20:34:58.585Z,99.90
2023-01-15T20:37:25.381Z,99.90
2023-01-15T20:39:52.663Z,99.90
2023-01-15T20:42:38.142Z,99.90
2023-01-15T20:45:11.005Z,99.90
2023-01-15T20:47:56.415Z,99.90
2023-01-15T20:50:23.189Z,99.90
2023-01-15T20:52:50.067Z,99.90
2023-01-15T20:55:16.969Z,99.90
2023-01-15T20:57:43.655Z,99.90
2023-01-15T21:00:10.417Z,99.90
2023-01-15T21:02:37.094Z,99.90
2023-01-15T21:05:03.908Z,99.90
2023-01-15T21:07:30.637Z,99.90
2023-01-15T21:09:57.393Z,99.90
2023-01-15T21:12:24.205Z,99.90
2023-01-15T21:14:50.898Z,99.90
2023-01-15T21:17:17.639Z,99.90
2023-01-15T21:19:44.586Z,99.90
2023-01-15T21:22:11.395Z,99.90
2023-01-15T21:24:38.191Z,99.90
2023-01-15T21:27:05.113Z,99.90
2023-01-15T21:29:31.878Z,99.90
2023-01-15T21:31:58.610Z,99.90
2023-01-15T21:34:25.368Z,99.90
2023-01-15T21:36:52.118Z,99.90
2023-01-15T21:39:18.762Z,99.90
2023-01-15T21:42:04.308Z,99.90
2023-01-15T21:44:31.040Z,99.90
2023-01-15T21:46:57.746Z,99.90
2023-01-15T21:49:24.475Z,99.90
2023-01-15T21:51:51.067Z,99.90
2023-01-15T21:54:17.751Z,99.90
2023-01-15T21:56:47.712Z,99.90
2023-01-15T21:59:14.639Z,99.90
2023-01-15T22:01:41.518Z,99.90
2023-01-15T22:04:08.464Z,99.90
2023-01-15T22:06:37.235Z,99.90
2023-01-15T22:09:05.800Z,99.90
2023-01-15T22:11:48.385Z,99.90
2023-01-15T22:14:15.085Z,99.90
2023-01-15T22:16:41.686Z,99.90
2023-01-15T22:19:08.388Z,99.90
2023-01-15T22:21:35.237Z,99.90
2023-01-15T22:24:02.391Z,99.90
2023-01-15T22:26:32.683Z,99.90
2023-01-15T22:28:59.362Z,99.90
2023-01-15T22:31:26.378Z,99.90
2023-01-15T22:33:53.016Z,99.90
2023-01-15T22:36:23.323Z,99.90
2023-01-15T22:38:53.949Z,99.90
2023-01-15T22:41:41.221Z,99.90
2023-01-15T22:44:10.050Z,99.90
2023-01-15T22:46:36.781Z,99.90
2023-01-15T22:49:03.491Z,99.90
2023-01-15T22:51:30.246Z,99.90
2023-01-15T22:53:56.946Z,99.90
2023-01-15T22:56:23.595Z,99.90
2023-01-15T22:58:50.257Z,99.90
2023-01-15T23:01:18.561Z,99.90
2023-01-15T23:03:45.449Z,99.90
2023-01-15T23:06:12.332Z,99.90
2023-01-15T23:08:38.941Z,99.90
2023-01-15T23:11:05.630Z,99.90
2023-01-15T23:13:32.324Z,99.90
2023-01-15T23:15:59.194Z,99.90
2023-01-15T23:18:26.060Z,99.90
2023-01-15T23:20:52.805Z,99.90
2023-01-15T23:23:20.924Z,99.90
2023-01-15T23:25:47.601Z,99.90
2023-01-15T23:28:14.245Z,99.90
2023-01-15T23:30:40.899Z,99.90
2023-01-15T23:33:08.298Z,99.90
2023-01-15T23:35:34.989Z,99.90
2023-01-15T23:38:01.631Z,99.90
2023-01-15T23:40:28.248Z,99.90
2023-01-15T23:43:13.727Z,99.90
2023-01-15T23:45:59.205Z,99.90
2023-01-15T23:48:25.880Z,99.90
2023-01-15T23:50:52.643Z,99.90
2023-01-15T23:53:19.376Z,99.90
2023-01-15T23:55:46.013Z,99.90
2023-01-15T23:58:12.608Z,99.90
